Observation data for Fluvanna on 10/14/2019      Previous  Date       Current Mesonet Observations  Soil Data  Daily Summary Page  Observations in Plain Language
KFVS 140500Z 18009KT 21/05 A2999 RMK A01 T02070049  RH  036%=      5-min Rain = 0
KFVS 140505Z 18007KT 21/05 A2999 RMK A01 T02050049  RH  037%=      5-min Rain = 0
KFVS 140510Z 19007KT 20/05 A2998 RMK A01 T02040049  RH  037%=      5-min Rain = 0
KFVS 140515Z 18007KT 20/05 A2998 RMK A01 T02040049  RH  037%=      5-min Rain = 0
KFVS 140520Z 18007KT 20/05 A2999 RMK A01 T02020049  RH  038%=      5-min Rain = 0
KFVS 140525Z 19007KT 20/05 A2999 RMK A01 T02000050  RH  038%=      5-min Rain = 0
KFVS 140530Z 18007KT 20/05 A2999 RMK A01 T02000050  RH  038%=      5-min Rain = 0
KFVS 140535Z 18007KT 20/05 A2998 RMK A01 T02000050  RH  038%=      5-min Rain = 0
KFVS 140540Z 18007KT 20/05 A2998 RMK A01 T02000050  RH  038%=      5-min Rain = 0
KFVS 140545Z 18007KT 20/05 A2998 RMK A01 T01970050  RH  039%=      5-min Rain = 0
KFVS 140550Z 18007KT 20/05 A2998 RMK A01 T01970050  RH  039%=      5-min Rain = 0
KFVS 140555Z 19007KT 20/05 A2998 RMK A01 T01980051  RH  039%=      5-min Rain = 0
KFVS 140600Z 18007KT 20/05 A2998 RMK A01 T01980051  RH  039%=      5-min Rain = 0
KFVS 140605Z 17006KT 20/05 A2998 RMK A01 T01960051  RH  039%=      5-min Rain = 0
KFVS 140610Z 17006KT 20/05 A2998 RMK A01 T01950052  RH  040%=      5-min Rain = 0
KFVS 140615Z 18008KT 20/05 A2997 RMK A01 T01950052  RH  040%=      5-min Rain = 0
KFVS 140620Z 18007KT 19/05 A2997 RMK A01 T01940051  RH  040%=      5-min Rain = 0
KFVS 140625Z 18008KT 19/05 A2998 RMK A01 T01930051  RH  040%=      5-min Rain = 0
KFVS 140630Z 18007KT 19/05 A2998 RMK A01 T01920051  RH  041%=      5-min Rain = 0
KFVS 140635Z 17007KT 19/05 A2997 RMK A01 T01900051  RH  041%=      5-min Rain = 0
KFVS 140640Z 16007KT 19/05 A2997 RMK A01 T01900052  RH  041%=      5-min Rain = 0
KFVS 140645Z 16007KT 19/05 A2997 RMK A01 T01880051  RH  041%=      5-min Rain = 0
KFVS 140650Z 17006KT 18/05 A2997 RMK A01 T01840051  RH  042%=      5-min Rain = 0
KFVS 140655Z 16006KT 18/05 A2997 RMK A01 T01810051  RH  043%=      5-min Rain = 0
KFVS 140700Z 16006KT 18/05 A2998 RMK A01 T01800051  RH  044%=      5-min Rain = 0
KFVS 140705Z 17006KT 18/05 A2998 RMK A01 T01800052  RH  044%=      5-min Rain = 0
KFVS 140710Z 18008KT 19/05 A2997 RMK A01 T01860054  RH  043%=      5-min Rain = 0
KFVS 140715Z 18007KT 19/06 A2997 RMK A01 T01930055  RH  041%=      5-min Rain = 0
KFVS 140720Z 18007KT 19/06 A2997 RMK A01 T01930055  RH  041%=      5-min Rain = 0
KFVS 140725Z 18007KT 19/05 A2997 RMK A01 T01920054  RH  041%=      5-min Rain = 0
KFVS 140730Z 18007KT 19/05 A2997 RMK A01 T01910054  RH  042%=      5-min Rain = 0
KFVS 140735Z 18007KT 19/05 A2997 RMK A01 T01900054  RH  042%=      5-min Rain = 0
KFVS 140740Z 18007KT 19/05 A2997 RMK A01 T01880054  RH  042%=      5-min Rain = 0
KFVS 140745Z 18006KT 19/05 A2997 RMK A01 T01870054  RH  043%=      5-min Rain = 0
KFVS 140750Z 18007KT 19/05 A2997 RMK A01 T01870054  RH  043%=      5-min Rain = 0
KFVS 140755Z 18007KT 19/05 A2997 RMK A01 T01870054  RH  043%=      5-min Rain = 0
KFVS 140800Z 18006KT 19/05 A2997 RMK A01 T01870054  RH  043%=      5-min Rain = 0
KFVS 140805Z 19006KT 19/06 A2997 RMK A01 T01860055  RH  043%=      5-min Rain = 0
KFVS 140810Z 19005KT 19/06 A2997 RMK A01 T01870056  RH  043%=      5-min Rain = 0
KFVS 140815Z 19005KT 19/06 A2996 RMK A01 T01860056  RH  043%=      5-min Rain = 0
KFVS 140820Z 20005KT 19/06 A2996 RMK A01 T01850055  RH  043%=      5-min Rain = 0
KFVS 140825Z 19005KT 19/06 A2996 RMK A01 T01860056  RH  043%=      5-min Rain = 0
KFVS 140830Z 19006KT 19/06 A2996 RMK A01 T01850056  RH  044%=      5-min Rain = 0
KFVS 140835Z 19005KT 18/06 A2996 RMK A01 T01840056  RH  044%=      5-min Rain = 0
KFVS 140840Z 18006KT 18/06 A2996 RMK A01 T01840056  RH  044%=      5-min Rain = 0
KFVS 140845Z 18006KT 18/06 A2996 RMK A01 T01840056  RH  044%=      5-min Rain = 0
KFVS 140850Z 18006KT 18/06 A2996 RMK A01 T01820055  RH  044%=      5-min Rain = 0
KFVS 140855Z 17005KT 18/06 A2996 RMK A01 T01800055  RH  045%=      5-min Rain = 0
KFVS 140900Z 17005KT 18/06 A2996 RMK A01 T01770056  RH  046%=      5-min Rain = 0
KFVS 140905Z 17005KT 17/06 A2996 RMK A01 T01740056  RH  047%=      5-min Rain = 0
KFVS 140910Z 18005KT 17/06 A2995 RMK A01 T01730056  RH  047%=      5-min Rain = 0
KFVS 140915Z 18006KT 17/06 A2995 RMK A01 T01740056  RH  047%=      5-min Rain = 0
KFVS 140920Z 18006KT 18/06 A2995 RMK A01 T01770056  RH  046%=      5-min Rain = 0
KFVS 140925Z 18006KT 18/06 A2995 RMK A01 T01780056  RH  046%=      5-min Rain = 0
KFVS 140930Z 18007KT 18/06 A2995 RMK A01 T01770056  RH  046%=      5-min Rain = 0
KFVS 140935Z 18007KT 18/06 A2995 RMK A01 T01770056  RH  046%=      5-min Rain = 0
KFVS 140940Z 18007KT 18/06 A2996 RMK A01 T01750056  RH  046%=      5-min Rain = 0
KFVS 140945Z 17008KT 18/06 A2995 RMK A01 T01750056  RH  047%=      5-min Rain = 0
KFVS 140950Z 17006KT 18/06 A2995 RMK A01 T01750057  RH  047%=      5-min Rain = 0
KFVS 140955Z 17007KT 17/06 A2996 RMK A01 T01740057  RH  047%=      5-min Rain = 0
KFVS 141000Z 17007KT 17/06 A2996 RMK A01 T01720056  RH  048%=      5-min Rain = 0
KFVS 141005Z 17007KT 17/06 A2996 RMK A01 T01720057  RH  048%=      5-min Rain = 0
KFVS 141010Z 17007KT 17/06 A2996 RMK A01 T01690056  RH  049%=      5-min Rain = 0
KFVS 141015Z 17008KT 17/06 A2996 RMK A01 T01670056  RH  049%=      5-min Rain = 0
KFVS 141020Z 17008KT 17/06 A2996 RMK A01 T01670056  RH  049%=      5-min Rain = 0
KFVS 141025Z 17008KT 17/06 A2996 RMK A01 T01670056  RH  049%=      5-min Rain = 0
KFVS 141030Z 17007KT 17/06 A2996 RMK A01 T01660056  RH  049%=      5-min Rain = 0
KFVS 141035Z 17008KT 17/06 A2996 RMK A01 T01660057  RH  050%=      5-min Rain = 0
KFVS 141040Z 17007KT 17/06 A2996 RMK A01 T01670058  RH  050%=      5-min Rain = 0
KFVS 141045Z 17008KT 17/06 A2996 RMK A01 T01670058  RH  050%=      5-min Rain = 0
KFVS 141050Z 17008KT 17/06 A2996 RMK A01 T01680058  RH  050%=      5-min Rain = 0
KFVS 141055Z 18007KT 17/06 A2996 RMK A01 T01680058  RH  050%=      5-min Rain = 0
KFVS 141100Z 18007KT 17/06 A2996 RMK A01 T01670059  RH  050%=      5-min Rain = 0
KFVS 141105Z 18007KT 17/06 A2997 RMK A01 T01690060  RH  050%=      5-min Rain = 0
KFVS 141110Z 18008KT 17/06 A2997 RMK A01 T01710060  RH  049%=      5-min Rain = 0
KFVS 141115Z 17009KT 17/06 A2997 RMK A01 T01710061  RH  049%=      5-min Rain = 0
KFVS 141120Z 17009KT 17/06 A2996 RMK A01 T01700061  RH  050%=      5-min Rain = 0
KFVS 141125Z 18006KT 17/06 A2997 RMK A01 T01700061  RH  050%=      5-min Rain = 0
KFVS 141130Z 21006KT 17/06 A2998 RMK A01 T01700061  RH  050%=      5-min Rain = 0
KFVS 141135Z 18009KT 17/06 A2997 RMK A01 T01690061  RH  050%=      5-min Rain = 0
KFVS 141140Z 18010KT 17/06 A2997 RMK A01 T01670061  RH  051%=      5-min Rain = 0
KFVS 141145Z 18009KT 17/06 A2997 RMK A01 T01690062  RH  051%=      5-min Rain = 0
KFVS 141150Z 18008KT 17/06 A2997 RMK A01 T01700062  RH  050%=      5-min Rain = 0
KFVS 141155Z 19009KT 17/06 A2998 RMK A01 T01690062  RH  050%=      5-min Rain = 0
KFVS 141200Z 19008KT 17/06 A2998 RMK A01 T01680062  RH  051%=      5-min Rain = 0
KFVS 141205Z 18008KT 17/06 A2998 RMK A01 T01670061  RH  051%=      5-min Rain = 0
KFVS 141210Z 18007KT 17/06 A2998 RMK A01 T01660061  RH  051%=      5-min Rain = 0
KFVS 141215Z 19007KT 17/06 A2998 RMK A01 T01650061  RH  051%=      5-min Rain = 0
KFVS 141220Z 19007KT 16/06 A2999 RMK A01 T01630060  RH  052%=      5-min Rain = 0
KFVS 141225Z 19007KT 16/06 A2999 RMK A01 T01620061  RH  052%=      5-min Rain = 0
KFVS 141230Z 18007KT 16/06 A2999 RMK A01 T01610061  RH  053%=      5-min Rain = 0
KFVS 141235Z 17009KT 16/06 A2998 RMK A01 T01620061  RH  053%=      5-min Rain = 0
KFVS 141240Z 17007KT 16/06 A2998 RMK A01 T01630062  RH  052%=      5-min Rain = 0
KFVS 141245Z 19007KT 16/06 A2998 RMK A01 T01640063  RH  052%=      5-min Rain = 0
KFVS 141250Z 18008KT 16/06 A2998 RMK A01 T01640062  RH  052%=      5-min Rain = 0
KFVS 141255Z 17010KT 17/06 A2998 RMK A01 T01650064  RH  053%=      5-min Rain = 0
KFVS 141300Z 17011KT 17/07 A2998 RMK A01 T01680066  RH  052%=      5-min Rain = 0
KFVS 141305Z 17011KT 17/07 A2998 RMK A01 T01690066  RH  052%=      5-min Rain = 0
KFVS 141310Z 18010KT 17/07 A2998 RMK A01 T01690066  RH  052%=      5-min Rain = 0
KFVS 141315Z 19009KT 17/07 A2999 RMK A01 T01690066  RH  052%=      5-min Rain = 0
KFVS 141320Z 19009KT 17/07 A2999 RMK A01 T01680066  RH  052%=      5-min Rain = 0
KFVS 141325Z 19010KT 17/07 A2999 RMK A01 T01660065  RH  053%=      5-min Rain = 0
KFVS 141330Z 19009KT 17/07 A2999 RMK A01 T01650065  RH  053%=      5-min Rain = 0
KFVS 141335Z 19009KT 17/07 A2999 RMK A01 T01650066  RH  053%=      5-min Rain = 0
KFVS 141340Z 20008KT 17/07 A30 RMK A01 T01650067  RH  053%=      5-min Rain = 0
KFVS 141345Z 20009KT 17/07 A30 RMK A01 T01660067  RH  053%=      5-min Rain = 0
KFVS 141350Z 19008KT 17/07 A30 RMK A01 T01670068  RH  053%=      5-min Rain = 0
KFVS 141355Z 19009KT 17/07 A3001 RMK A01 T01670068  RH  053%=      5-min Rain = 0
KFVS 141400Z 19009KT 17/07 A3001 RMK A01 T01680069  RH  054%=      5-min Rain = 0
KFVS 141405Z 19009KT 17/07 A3001 RMK A01 T01680070  RH  054%=      5-min Rain = 0
KFVS 141410Z 20008KT 17/07 A3001 RMK A01 T01700071  RH  053%=      5-min Rain = 0
KFVS 141415Z 20008KT 17/07 A3001 RMK A01 T01720072  RH  053%=      5-min Rain = 0
KFVS 141420Z 20007KT 17/07 A3001 RMK A01 T01740074  RH  053%=      5-min Rain = 0
KFVS 141425Z 20008KT 18/08 A3001 RMK A01 T01780077  RH  053%=      5-min Rain = 0
KFVS 141430Z 20008KT 18/08 A3001 RMK A01 T01830079  RH  052%=      5-min Rain = 0
KFVS 141435Z 22007KT 19/08 A3001 RMK A01 T01860081  RH  052%=      5-min Rain = 0
KFVS 141440Z 21008KT 19/08 A3001 RMK A01 T01880082  RH  051%=      5-min Rain = 0
KFVS 141445Z 21011KT 19/08 A3001 RMK A01 T01900083  RH  051%=      5-min Rain = 0
KFVS 141450Z 22011KT 19/09 A3001 RMK A01 T01920085  RH  051%=      5-min Rain = 0
KFVS 141455Z 21010KT 19/09 A3001 RMK A01 T01930086  RH  051%=      5-min Rain = 0
KFVS 141500Z 21010KT 19/09 A3001 RMK A01 T01940086  RH  051%=      5-min Rain = 0
KFVS 141505Z 21009KT 20/09 A3001 RMK A01 T01950086  RH  051%=      5-min Rain = 0
KFVS 141510Z 21008KT 19/09 A3002 RMK A01 T01940086  RH  051%=      5-min Rain = 0
KFVS 141515Z 21009KT 20/09 A3002 RMK A01 T01950085  RH  051%=      5-min Rain = 0
KFVS 141520Z 21009KT 19/09 A3002 RMK A01 T01940085  RH  051%=      5-min Rain = 0
KFVS 141525Z 21008KT 20/09 A3002 RMK A01 T01950085  RH  050%=      5-min Rain = 0
KFVS 141530Z 20008KT 20/09 A3002 RMK A01 T01980086  RH  050%=      5-min Rain = 0
KFVS 141535Z 22008KT 20/09 A3002 RMK A01 T01990087  RH  050%=      5-min Rain = 0
KFVS 141540Z 21009KT 20/09 A3001 RMK A01 T02010088  RH  049%=      5-min Rain = 0
KFVS 141545Z 21010KT 21/09 A3001 RMK A01 T02050090  RH  049%=      5-min Rain = 0
KFVS 141550Z 22010KT 21/09 A3001 RMK A01 T02060091  RH  049%=      5-min Rain = 0
KFVS 141555Z 21010KT 21/09 A3001 RMK A01 T02100093  RH  049%=      5-min Rain = 0
KFVS 141600Z 21010KT 21/10 A3001 RMK A01 T02120095  RH  049%=      5-min Rain = 0
KFVS 141605Z 21011KT 21/10 A30 RMK A01 T02130096  RH  049%=      5-min Rain = 0
KFVS 141610Z 21013KT 21/10 A3001 RMK A01 T02130096  RH  048%=      5-min Rain = 0
KFVS 141615Z 21010KT 21/10 A3001 RMK A01 T02140096  RH  048%=      5-min Rain = 0
KFVS 141620Z 21010KT 22/10 A3001 RMK A01 T02180097  RH  047%=      5-min Rain = 0
KFVS 141625Z 22010KT 22/10 A3001 RMK A01 T02220100  RH  047%=      5-min Rain = 0
KFVS 141630Z 22011KT 22/10 A3001 RMK A01 T02240100  RH  047%=      5-min Rain = 0
KFVS 141635Z 22011KT 22/10 A3001 RMK A01 T02240101  RH  047%=      5-min Rain = 0
KFVS 141640Z 22013G18KT 23/10 A3001 RMK A01 T02260104  RH  048%=      5-min Rain = 0
KFVS 141645Z 22013KT 23/11 A3001 RMK A01 T02270105  RH  048%=      5-min Rain = 0
KFVS 141650Z 22013KT 23/11 A3001 RMK A01 T02280106  RH  048%=      5-min Rain = 0
KFVS 141655Z 22011KT 23/11 A30 RMK A01 T02320107  RH  047%=      5-min Rain = 0
KFVS 141700Z 21011KT 23/11 A30 RMK A01 T02330107  RH  047%=      5-min Rain = 0
KFVS 141705Z 21012KT 24/11 A30 RMK A01 T02350109  RH  047%=      5-min Rain = 0
KFVS 141710Z 21012KT 24/11 A30 RMK A01 T02350110  RH  047%=      5-min Rain = 0
KFVS 141715Z 23014KT 24/11 A30 RMK A01 T02360112  RH  047%=      5-min Rain = 0
KFVS 141720Z 22013KT 24/11 A2999 RMK A01 T02360112  RH  047%=      5-min Rain = 0
KFVS 141725Z 21013KT 24/11 A2999 RMK A01 T02400113  RH  047%=      5-min Rain = 0
KFVS 141730Z 22013KT 24/11 A2999 RMK A01 T02410113  RH  046%=      5-min Rain = 0
KFVS 141735Z 22014KT 24/11 A2999 RMK A01 T02400112  RH  046%=      5-min Rain = 0
KFVS 141740Z 23013KT 24/11 A2999 RMK A01 T02420112  RH  046%=      5-min Rain = 0
KFVS 141745Z 23013KT 24/11 A2999 RMK A01 T02420112  RH  046%=      5-min Rain = 0
KFVS 141750Z 21012KT 24/11 A2999 RMK A01 T02410112  RH  046%=      5-min Rain = 0
KFVS 141755Z 22012KT 24/11 A2999 RMK A01 T02390112  RH  046%=      5-min Rain = 0
KFVS 141800Z 22012KT 24/11 A2999 RMK A01 T02410113  RH  046%=      5-min Rain = 0
KFVS 141805Z 22013KT 24/11 A2999 RMK A01 T02440114  RH  046%=      5-min Rain = 0
KFVS 141810Z 23011KT 25/11 A2999 RMK A01 T02460114  RH  045%=      5-min Rain = 0
KFVS 141815Z 23010G16KT 25/12 A2999 RMK A01 T02490116  RH  045%=      5-min Rain = 0
KFVS 141820Z 24011KT 25/12 A2998 RMK A01 T02480115  RH  045%=      5-min Rain = 0
KFVS 141825Z 22013G18KT 25/12 A2998 RMK A01 T02510116  RH  045%=      5-min Rain = 0
KFVS 141830Z 23011KT 25/12 A2998 RMK A01 T02510116  RH  044%=      5-min Rain = 0
KFVS 141835Z 22013KT 25/12 A2997 RMK A01 T02530117  RH  044%=      5-min Rain = 0
KFVS 141840Z 23012G17KT 26/12 A2997 RMK A01 T02610119  RH  043%=      5-min Rain = 0
KFVS 141845Z 23014G22KT 27/12 A2996 RMK A01 T02650120  RH  042%=      5-min Rain = 0
KFVS 141850Z 23012KT 26/12 A2996 RMK A01 T02620119  RH  043%=      5-min Rain = 0
KFVS 141855Z 23013G19KT 26/12 A2996 RMK A01 T02630121  RH  043%=      5-min Rain = 0
KFVS 141900Z 24014KT 26/12 A2995 RMK A01 T02640122  RH  043%=      5-min Rain = 0
KFVS 141905Z 22012G17KT 26/12 A2995 RMK A01 T02640122  RH  043%=      5-min Rain = 0
KFVS 141910Z 23012G18KT 27/12 A2995 RMK A01 T02730124  RH  041%=      5-min Rain = 0
KFVS 141915Z 24014G21KT 27/12 A2995 RMK A01 T02720124  RH  041%=      5-min Rain = 0
KFVS 141920Z 22013G19KT 27/13 A2994 RMK A01 T02740126  RH  041%=      5-min Rain = 0
KFVS 141925Z 22015KT 28/13 A2994 RMK A01 T02750128  RH  042%=      5-min Rain = 0
KFVS 141930Z 22013KT 27/13 A2994 RMK A01 T02740130  RH  043%=      5-min Rain = 0
KFVS 141935Z 22016G23KT 28/13 A2994 RMK A01 T02780131  RH  042%=      5-min Rain = 0
KFVS 141940Z 24014G20KT 28/13 A2993 RMK A01 T02750130  RH  042%=      5-min Rain = 0
KFVS 141945Z 22015G23KT 27/13 A2993 RMK A01 T02730130  RH  043%=      5-min Rain = 0
KFVS 141950Z 21012G18KT 27/13 A2993 RMK A01 T02720130  RH  043%=      5-min Rain = 0
KFVS 141955Z 21015G22KT 28/13 A2992 RMK A01 T02780131  RH  042%=      5-min Rain = 0
KFVS 142000Z 20015G21KT 28/13 A2992 RMK A01 T02750128  RH  042%=      5-min Rain = 0
KFVS 142005Z 21014G19KT 28/13 A2992 RMK A01 T02760128  RH  042%=      5-min Rain = 0
KFVS 142010Z 22016KT 28/13 A2992 RMK A01 T02760125  RH  041%=      5-min Rain = 0
KFVS 142015Z 21012G17KT 28/13 A2992 RMK A01 T02770126  RH  041%=      5-min Rain = 0
KFVS 142020Z 21015KT 28/13 A2992 RMK A01 T02770126  RH  041%=      5-min Rain = 0
KFVS 142025Z 22013KT 28/13 A2991 RMK A01 T02760127  RH  041%=      5-min Rain = 0
KFVS 142030Z 23014G19KT 28/13 A2991 RMK A01 T02750127  RH  041%=      5-min Rain = 0
KFVS 142035Z 21012G17KT 28/13 A2991 RMK A01 T02750129  RH  042%=      5-min Rain = 0
KFVS 142040Z 20013G18KT 28/13 A2991 RMK A01 T02780128  RH  041%=      5-min Rain = 0
KFVS 142045Z 20015G21KT 28/13 A2991 RMK A01 T02800127  RH  040%=      5-min Rain = 0
KFVS 142050Z 21016KT 28/13 A2991 RMK A01 T02770126  RH  041%=      5-min Rain = 0
KFVS 142055Z 20014G19KT 27/13 A2991 RMK A01 T02740126  RH  042%=      5-min Rain = 0
KFVS 142100Z 20012G17KT 28/13 A2991 RMK A01 T02750128  RH  042%=      5-min Rain = 0
KFVS 142105Z 20013G18KT 28/13 A2991 RMK A01 T02760126  RH  041%=      5-min Rain = 0
KFVS 142110Z 20014KT 28/13 A2991 RMK A01 T02770126  RH  041%=      5-min Rain = 0
KFVS 142115Z 21014G20KT 28/13 A2991 RMK A01 T02790127  RH  041%=      5-min Rain = 0
KFVS 142120Z 21014KT 28/13 A2991 RMK A01 T02780128  RH  041%=      5-min Rain = 0
KFVS 142125Z 19011G18KT 28/13 A2991 RMK A01 T02790128  RH  041%=      5-min Rain = 0
KFVS 142130Z 21012KT 28/13 A2991 RMK A01 T02820127  RH  040%=      5-min Rain = 0
KFVS 142135Z 21012G17KT 28/13 A2991 RMK A01 T02840125  RH  039%=      5-min Rain = 0
KFVS 142140Z 21012G17KT 28/13 A2991 RMK A01 T02820126  RH  040%=      5-min Rain = 0
KFVS 142145Z 22012G17KT 28/13 A2991 RMK A01 T02790127  RH  040%=      5-min Rain = 0
KFVS 142150Z 21014KT 28/13 A2991 RMK A01 T02790125  RH  040%=      5-min Rain = 0
KFVS 142155Z 22013KT 28/13 A2991 RMK A01 T02790125  RH  040%=      5-min Rain = 0
KFVS 142200Z 21013G19KT 28/13 A299 RMK A01 T02790127  RH  041%=      5-min Rain = 0
KFVS 142205Z 20010G15KT 28/13 A2991 RMK A01 T02770129  RH  042%=      5-min Rain = 0
KFVS 142210Z 21011KT 28/13 A299 RMK A01 T02780129  RH  041%=      5-min Rain = 0
KFVS 142215Z 20013KT 28/13 A299 RMK A01 T02790129  RH  041%=      5-min Rain = 0
KFVS 142220Z 20012G17KT 28/13 A299 RMK A01 T02790129  RH  041%=      5-min Rain = 0
KFVS 142225Z 20012G18KT 28/13 A299 RMK A01 T02800129  RH  041%=      5-min Rain = 0
KFVS 142230Z 19012KT 28/13 A299 RMK A01 T02800129  RH  041%=      5-min Rain = 0
KFVS 142235Z 20012KT 28/13 A299 RMK A01 T02770128  RH  041%=      5-min Rain = 0
KFVS 142240Z 21011G17KT 28/13 A299 RMK A01 T02770127  RH  041%=      5-min Rain = 0
KFVS 142245Z 20011G16KT 28/13 A299 RMK A01 T02770127  RH  041%=      5-min Rain = 0
KFVS 142250Z 19013KT 28/13 A299 RMK A01 T02750126  RH  041%=      5-min Rain = 0
KFVS 142255Z 19013G18KT 27/13 A299 RMK A01 T02730127  RH  042%=      5-min Rain = 0
KFVS 142300Z 20011KT 28/13 A299 RMK A01 T02750127  RH  042%=      5-min Rain = 0
KFVS 142305Z 21013KT 27/13 A299 RMK A01 T02720128  RH  043%=      5-min Rain = 0
KFVS 142310Z 20012KT 27/13 A2991 RMK A01 T02710129  RH  043%=      5-min Rain = 0
KFVS 142315Z 20013KT 27/13 A299 RMK A01 T02690127  RH  043%=      5-min Rain = 0
KFVS 142320Z 20013KT 27/13 A299 RMK A01 T02680126  RH  043%=      5-min Rain = 0
KFVS 142325Z 20013G18KT 27/13 A299 RMK A01 T02670127  RH  044%=      5-min Rain = 0
KFVS 142330Z 19011KT 27/13 A2991 RMK A01 T02650126  RH  044%=      5-min Rain = 0
KFVS 142335Z 20013KT 26/13 A299 RMK A01 T02630125  RH  044%=      5-min Rain = 0
KFVS 142340Z 19011KT 26/13 A2991 RMK A01 T02620128  RH  045%=      5-min Rain = 0
KFVS 142345Z 21010KT 26/13 A2991 RMK A01 T02610131  RH  046%=      5-min Rain = 0
KFVS 142350Z 20012G17KT 26/13 A2991 RMK A01 T02590134  RH  048%=      5-min Rain = 0
KFVS 142355Z 21012KT 26/13 A2991 RMK A01 T02570134  RH  048%=      5-min Rain = 0
KFVS 150000Z 20012KT 25/13 A2991 RMK A01 T02540131  RH  048%=      5-min Rain = 0
KFVS 150005Z 21012KT 25/13 A2991 RMK A01 T02510130  RH  049%=      5-min Rain = 0
KFVS 150010Z 20012KT 25/13 A2991 RMK A01 T02490129  RH  049%=      5-min Rain = 0
KFVS 150015Z 20011KT 25/13 A2991 RMK A01 T02460132  RH  051%=      5-min Rain = 0
KFVS 150020Z 20011G16KT 25/13 A2991 RMK A01 T02450133  RH  052%=      5-min Rain = 0
KFVS 150025Z 20011KT 24/13 A2991 RMK A01 T02440134  RH  052%=      5-min Rain = 0
KFVS 150030Z 19011KT 24/13 A2991 RMK A01 T02430134  RH  053%=      5-min Rain = 0
KFVS 150035Z 19011KT 24/14 A2991 RMK A01 T02410135  RH  054%=      5-min Rain = 0
KFVS 150040Z 19011KT 24/14 A2991 RMK A01 T02400136  RH  054%=      5-min Rain = 0
KFVS 150045Z 18010KT 24/14 A2991 RMK A01 T02380136  RH  055%=      5-min Rain = 0
KFVS 150050Z 19011KT 24/14 A2991 RMK A01 T02370137  RH  056%=      5-min Rain = 0
KFVS 150055Z 19011KT 24/14 A2991 RMK A01 T02350138  RH  057%=      5-min Rain = 0
KFVS 150100Z 19011KT 23/14 A2991 RMK A01 T02340139  RH  058%=      5-min Rain = 0
KFVS 150105Z 19009KT 23/14 A2991 RMK A01 T02330140  RH  058%=      5-min Rain = 0
KFVS 150110Z 19010KT 23/14 A2992 RMK A01 T02310139  RH  059%=      5-min Rain = 0
KFVS 150115Z 19013KT 23/14 A2992 RMK A01 T02320141  RH  059%=      5-min Rain = 0
KFVS 150120Z 18011G17KT 23/14 A2992 RMK A01 T02300140  RH  059%=      5-min Rain = 0
KFVS 150125Z 18011KT 23/14 A2992 RMK A01 T02290141  RH  060%=      5-min Rain = 0
KFVS 150130Z 18009KT 23/14 A2993 RMK A01 T02260140  RH  061%=      5-min Rain = 0
KFVS 150135Z 19010KT 22/14 A2993 RMK A01 T02240140  RH  061%=      5-min Rain = 0
KFVS 150140Z 19011KT 22/14 A2993 RMK A01 T02240141  RH  062%=      5-min Rain = 0
KFVS 150145Z 18010KT 22/14 A2993 RMK A01 T02240142  RH  062%=      5-min Rain = 0
KFVS 150150Z 18009G15KT 22/14 A2993 RMK A01 T02230141  RH  062%=      5-min Rain = 0
KFVS 150155Z 18009KT 22/14 A2993 RMK A01 T02210141  RH  063%=      5-min Rain = 0
KFVS 150200Z 18010KT 22/14 A2993 RMK A01 T02210141  RH  063%=      5-min Rain = 0
KFVS 150205Z 18010G15KT 22/14 A2993 RMK A01 T02210142  RH  063%=      5-min Rain = 0
KFVS 150210Z 18011G16KT 22/14 A2993 RMK A01 T02220143  RH  063%=      5-min Rain = 0
KFVS 150215Z 18011KT 22/14 A2993 RMK A01 T02200142  RH  064%=      5-min Rain = 0
KFVS 150220Z 18010KT 22/14 A2993 RMK A01 T02180141  RH  064%=      5-min Rain = 0
KFVS 150225Z 18010KT 22/14 A2993 RMK A01 T02170141  RH  065%=      5-min Rain = 0
KFVS 150230Z 18010KT 22/14 A2993 RMK A01 T02160141  RH  065%=      5-min Rain = 0
KFVS 150235Z 18010KT 22/14 A2993 RMK A01 T02160141  RH  065%=      5-min Rain = 0
KFVS 150240Z 18009KT 22/14 A2994 RMK A01 T02150142  RH  066%=      5-min Rain = 0
KFVS 150245Z 18009KT 21/14 A2994 RMK A01 T02140142  RH  066%=      5-min Rain = 0
KFVS 150250Z 18010KT 21/14 A2994 RMK A01 T02130141  RH  066%=      5-min Rain = 0
KFVS 150255Z 18010KT 21/14 A2994 RMK A01 T02120142  RH  067%=      5-min Rain = 0
KFVS 150300Z 18010KT 21/14 A2994 RMK A01 T02130142  RH  067%=      5-min Rain = 0
KFVS 150305Z 18010KT 21/14 A2994 RMK A01 T02110142  RH  067%=      5-min Rain = 0
KFVS 150310Z 18010KT 21/14 A2994 RMK A01 T02100141  RH  068%=      5-min Rain = 0
KFVS 150315Z 18011KT 21/14 A2994 RMK A01 T02100142  RH  068%=      5-min Rain = 0
KFVS 150320Z 18012KT 21/14 A2994 RMK A01 T02080142  RH  068%=      5-min Rain = 0
KFVS 150325Z 18011KT 21/14 A2995 RMK A01 T02090142  RH  068%=      5-min Rain = 0
KFVS 150330Z 19011KT 21/14 A2995 RMK A01 T02080142  RH  069%=      5-min Rain = 0
KFVS 150335Z 19011KT 21/14 A2995 RMK A01 T02070142  RH  069%=      5-min Rain = 0
KFVS 150340Z 19010KT 21/14 A2995 RMK A01 T02050141  RH  070%=      5-min Rain = 0
KFVS 150345Z 19010KT 21/14 A2995 RMK A01 T02050141  RH  070%=      5-min Rain = 0
KFVS 150350Z 19011KT 20/14 A2995 RMK A01 T02040141  RH  070%=      5-min Rain = 0
KFVS 150355Z 19011KT 20/14 A2995 RMK A01 T02040142  RH  070%=      5-min Rain = 0
KFVS 150400Z 18011KT 20/14 A2995 RMK A01 T02040142  RH  070%=      5-min Rain = 0
KFVS 150405Z 18011KT 20/14 A2995 RMK A01 T02030142  RH  071%=      5-min Rain = 0
KFVS 150410Z 19010G15KT 20/14 A2995 RMK A01 T02020141  RH  071%=      5-min Rain = 0
KFVS 150415Z 19009G14KT 20/14 A2996 RMK A01 T02020141  RH  071%=      5-min Rain = 0
KFVS 150420Z 19009KT 20/14 A2996 RMK A01 T02030142  RH  071%=      5-min Rain = 0
KFVS 150425Z 19008KT 20/14 A2996 RMK A01 T02020141  RH  071%=      5-min Rain = 0
KFVS 150430Z 19010KT 20/14 A2996 RMK A01 T02030142  RH  071%=      5-min Rain = 0
KFVS 150435Z 19009KT 20/14 A2996 RMK A01 T02030142  RH  071%=      5-min Rain = 0
KFVS 150440Z 19009KT 20/14 A2996 RMK A01 T02020142  RH  071%=      5-min Rain = 0
KFVS 150445Z 18009KT 20/14 A2996 RMK A01 T02020142  RH  072%=      5-min Rain = 0
KFVS 150450Z 19010KT 20/14 A2996 RMK A01 T02030143  RH  072%=      5-min Rain = 0
KFVS 150455Z 19009KT 20/14 A2995 RMK A01 T02020143  RH  072%=      5-min Rain = 0

Page generated in 0.0092 seconds.